Time;durP1;ratioP1;P1;durP2;ratioP2;P2;SDS_P1;SDS_P2;PMS_P1;PMS_P2;Temp;Humidity;BMP_temperature;BMP_pressure;BME280_temperature;BME280_humidity;BME280_pressure;Samples;Min_cycle;Max_cycle;Signal;HPM_P1;HPM_P2
2022/01/17 00:02:22;;;;;;;38.67;17.20;;;;;;;-2.68;100.00;101302.63;5071865;28;20032;-69
2022/01/17 00:04:48;;;;;;;42.27;19.17;;;;;;;-2.35;100.00;101339.69;5072285;28;20511;-71
2022/01/17 00:07:15;;;;;;;39.27;19.97;;;;;;;-2.52;100.00;101295.84;5071467;28;20111;-71
2022/01/17 00:09:41;;;;;;;46.43;18.13;;;;;;;-2.55;99.79;101315.78;5071980;28;20035;-75
2022/01/17 00:12:07;;;;;;;35.63;17.73;;;;;;;-2.37;99.89;101341.16;5072269;28;20119;-71
2022/01/17 00:14:40;;;;;;;37.07;16.77;;;;;;;-2.59;100.00;101344.03;5072316;28;20032;-70
2022/01/17 00:17:33;;;;;;;32.47;16.57;;;;;;;-2.86;100.00;101314.25;5072222;28;20035;-71
2022/01/17 00:19:55;;;;;;;39.07;16.97;;;;;;;-2.60;100.00;101357.41;4970348;28;20039;-71
2022/01/17 00:22:24;;;;;;;34.00;16.43;;;;;;;-2.74;100.00;101353.44;4970757;28;20043;-71
2022/01/17 00:24:50;;;;;;;28.10;15.25;;;;;;;-2.65;100.00;101356.03;4970788;28;20047;-72
2022/01/17 00:27:16;;;;;;;29.53;14.40;;;;;;;-2.53;100.00;101357.31;4969206;28;20113;-70
2022/01/17 00:29:41;;;;;;;25.93;14.60;;;;;;;-2.67;100.00;101338.16;4969584;28;20129;-68
2022/01/17 00:32:07;;;;;;;29.50;13.97;;;;;;;-2.67;100.00;101330.56;4969510;28;20088;-71
2022/01/17 00:34:33;;;;;;;29.47;14.53;;;;;;;-2.77;100.00;101294.97;4970531;28;20034;-68
2022/01/17 00:36:58;;;;;;;28.40;13.80;;;;;;;-2.66;100.00;101332.38;4970536;28;20074;-70
2022/01/17 00:39:25;;;;;;;32.20;16.20;;;;;;;-2.80;100.00;101292.16;4970409;28;20054;-71
2022/01/17 00:41:50;;;;;;;27.97;13.97;;;;;;;-2.56;100.00;101330.81;4970598;28;20070;-68
2022/01/17 00:44:21;;;;;;;37.83;16.00;;;;;;;-2.53;100.00;101328.56;4970138;28;20122;-69
2022/01/17 00:46:47;;;;;;;27.27;14.00;;;;;;;-2.71;100.00;101312.44;4970106;28;20047;-70
2022/01/17 00:49:13;;;;;;;24.13;12.87;;;;;;;-2.63;100.00;101326.72;4969940;28;20039;-71
2022/01/17 00:51:39;;;;;;;20.67;12.07;;;;;;;-2.77;100.00;101327.84;4950284;28;20429;-71
2022/01/17 00:54:04;;;;;;;24.50;12.20;;;;;;;-3.14;100.00;101299.63;4933737;29;20039;-72
2022/01/17 00:56:30;;;;;;;23.53;12.47;;;;;;;-3.46;100.00;101264.31;4981064;28;20106;-70
2022/01/17 00:58:55;;;;;;;25.43;11.90;;;;;;;-3.42;100.00;101300.88;5051112;28;20078;-72
2022/01/17 01:01:21;;;;;;;23.27;12.10;;;;;;;-3.32;100.00;101318.78;5050901;28;20025;-72
2022/01/17 01:03:46;;;;;;;21.03;12.07;;;;;;;-3.36;100.00;101316.69;5051163;28;20071;-69
2022/01/17 01:06:12;;;;;;;22.27;11.50;;;;;;;-3.58;100.00;101250.38;5033086;28;20057;-70
2022/01/17 01:08:37;;;;;;;21.07;10.57;;;;;;;-3.20;100.00;101320.81;5051333;28;20047;-69
2022/01/17 01:11:03;;;;;;;22.53;11.33;;;;;;;-3.31;100.00;101310.47;5051111;28;20463;-67
2022/01/17 01:13:30;;;;;;;22.33;10.43;;;;;;;-3.68;100.00;101228.34;5033177;28;20091;-71
2022/01/17 01:19:06;;;;;;;23.50;11.67;;;;;;;-3.15;100.00;101295.31;5050269;28;20500;-67
2022/01/17 01:29:29;;;;;;;22.33;11.30;;;;;;;-3.06;100.00;101276.81;5050927;28;20039;-69
2022/01/17 01:32:01;;;;;;;23.27;11.20;;;;;;;-3.18;100.00;101276.41;5050498;28;20041;-70
2022/01/17 01:34:40;;;;;;;22.23;10.90;;;;;;;-3.32;100.00;101268.28;5032494;28;20083;-71
2022/01/17 01:37:06;;;;;;;48.70;16.33;;;;;;;-3.51;100.00;101272.16;5050424;28;20051;-70
2022/01/17 01:39:33;;;;;;;29.73;14.00;;;;;;;-3.58;100.00;101257.97;5050167;28;20463;-74
2022/01/17 01:41:59;;;;;;;24.60;11.77;;;;;;;-3.41;100.00;101258.13;5049666;28;20103;-73
2022/01/17 01:44:26;;;;;;;25.30;12.53;;;;;;;-3.43;100.00;101246.97;5050107;28;20024;-74
2022/01/17 01:46:53;;;;;;;24.40;11.90;;;;;;;-3.42;100.00;101256.31;5050263;28;20029;-73
2022/01/17 01:49:21;;;;;;;22.37;11.50;;;;;;;-3.64;100.00;101196.75;5048916;28;20108;-73
2022/01/17 01:51:47;;;;;;;20.13;11.43;;;;;;;-3.79;100.00;101143.03;5049050;28;20044;-71
2022/01/17 01:54:13;;;;;;;24.47;11.87;;;;;;;-3.02;100.00;101228.38;5032093;28;20028;-73
2022/01/17 01:56:43;;;;;;;22.03;11.83;;;;;;;-2.96;100.00;101223.97;5050074;28;20483;-71
2022/01/17 01:59:09;;;;;;;27.05;11.70;;;;;;;-3.00;100.00;101200.03;5050874;28;20027;-72
2022/01/17 02:01:35;;;;;;;24.10;11.33;;;;;;;-2.72;100.00;101205.34;5032099;28;20127;-76
2022/01/17 02:04:02;;;;;;;28.30;12.17;;;;;;;-2.56;100.00;101212.88;5050082;28;20115;-74
2022/01/17 02:06:27;;;;;;;28.40;12.70;;;;;;;-2.75;100.00;101149.47;5049463;28;20041;-75
2022/01/17 02:08:53;;;;;;;27.10;12.00;;;;;;;-2.41;100.00;101183.19;5049797;28;20029;-74
2022/01/17 02:11:19;;;;;;;30.40;13.97;;;;;;;-2.31;100.00;101185.00;5049772;28;20471;-74
2022/01/17 02:13:46;;;;;;;29.87;13.30;;;;;;;-2.25;99.95;101185.59;5050221;28;20037;-74
2022/01/17 02:16:14;;;;;;;33.33;16.10;;;;;;;-2.41;99.67;101179.75;5050246;28;20442;-71
2022/01/17 02:18:44;;;;;;;28.43;13.47;;;;;;;-2.36;100.00;101194.63;5049312;28;20033;-72
2022/01/17 02:21:19;;;;;;;23.40;11.80;;;;;;;-2.48;100.00;101142.84;5049754;28;20364;-75
2022/01/17 02:23:48;;;;;;;25.43;12.67;;;;;;;-2.17;100.00;101188.88;5049759;28;20412;-72
2022/01/17 02:26:16;;;;;;;23.40;11.43;;;;;;;-2.09;99.81;101182.97;5049972;28;20037;-73
2022/01/17 02:28:50;;;;;;;27.53;11.70;;;;;;;-2.18;98.82;101171.91;5049657;28;20025;-74
2022/01/17 02:31:16;;;;;;;23.63;11.43;;;;;;;-2.31;99.48;101187.53;5053941;28;20047;-74
2022/01/17 02:33:42;;;;;;;25.83;11.53;;;;;;;-2.35;100.00;101180.38;5054098;28;20028;-74
2022/01/17 02:36:08;;;;;;;19.63;10.53;;;;;;;-2.58;100.00;101130.91;5053941;28;20067;-73
2022/01/17 02:38:33;;;;;;;20.50;10.63;;;;;;;-2.40;99.97;101163.84;5053805;28;20048;-73
2022/01/17 02:40:59;;;;;;;18.30;9.97;;;;;;;-2.24;99.64;101187.41;5054335;28;20033;-73
2022/01/17 02:43:26;;;;;;;19.90;10.60;;;;;;;-2.21;99.54;101180.09;5053162;28;20048;-72
2022/01/17 02:48:25;;;;;;;18.40;10.37;;;;;;;-2.26;99.68;101182.94;5053698;28;20527;-72
2022/01/17 02:50:51;;;;;;;21.23;10.13;;;;;;;-2.28;99.34;101163.44;5053561;28;20021;-74
2022/01/17 02:53:17;;;;;;;24.43;11.60;;;;;;;-2.36;99.19;101153.28;5053477;28;20029;-71
2022/01/17 02:55:46;;;;;;;21.83;10.97;;;;;;;-2.16;98.60;101170.44;5052661;28;20107;-73
2022/01/17 02:58:12;;;;;;;22.57;10.80;;;;;;;-2.44;98.13;101128.13;5053339;28;20040;-72
2022/01/17 03:00:38;;;;;;;19.07;10.30;;;;;;;-2.29;98.29;101170.88;5053225;28;20025;-69
2022/01/17 03:03:04;;;;;;;23.93;11.40;;;;;;;-2.42;98.88;101160.28;5051969;28;20047;-73
2022/01/17 03:05:29;;;;;;;20.30;10.87;;;;;;;-2.51;99.13;101172.88;5052337;28;20061;-73
2022/01/17 03:07:55;;;;;;;22.20;12.57;;;;;;;-2.90;99.51;101110.00;5053298;28;20135;-72
2022/01/17 03:10:39;;;;;;;19.40;11.17;;;;;;;-2.64;99.96;101166.59;5052926;28;20094;-73
2022/01/17 03:13:13;;;;;;;22.83;11.70;;;;;;;-2.85;100.00;101126.53;5037475;28;20483;-71
2022/01/17 03:15:39;;;;;;;20.80;10.83;;;;;;;-2.72;100.00;101158.97;5053186;28;20025;-72
2022/01/17 03:18:05;;;;;;;22.03;12.07;;;;;;;-2.61;100.00;101158.44;5053049;28;20534;-73
2022/01/17 03:20:34;;;;;;;24.63;12.87;;;;;;;-2.61;100.00;101164.38;5053015;28;20109;-74
2022/01/17 03:23:00;;;;;;;25.37;13.10;;;;;;;-2.65;99.77;101158.88;5052443;28;20029;-70
2022/01/17 03:25:26;;;;;;;23.43;12.50;;;;;;;-2.65;99.74;101147.09;5053350;28;20104;-72
2022/01/17 03:27:52;;;;;;;27.77;12.77;;;;;;;-2.62;99.62;101131.34;5052965;28;20036;-73
2022/01/17 03:30:18;;;;;;;24.03;12.93;;;;;;;-2.66;99.31;101104.00;5052810;28;20407;-74
2022/01/17 03:32:43;;;;;;;22.67;12.30;;;;;;;-2.59;98.98;101146.84;5052842;28;20056;-72
2022/01/17 03:35:10;;;;;;;23.50;12.07;;;;;;;-2.63;99.39;101124.50;5052638;28;20036;-72
2022/01/17 03:37:36;;;;;;;23.10;11.20;;;;;;;-2.61;99.11;101138.19;5051666;28;20123;-73
2022/01/17 03:40:02;;;;;;;23.47;13.40;;;;;;;-2.67;99.16;101143.53;5052324;28;20097;-73
2022/01/17 03:42:28;;;;;;;22.40;12.27;;;;;;;-2.59;100.00;101151.91;5051889;28;20025;-74
2022/01/17 03:44:54;;;;;;;23.13;12.43;;;;;;;-2.50;100.00;101160.38;5052743;28;20025;-70
2022/01/17 03:47:20;;;;;;;24.83;13.67;;;;;;;-2.40;100.00;101158.81;5052431;28;20036;-71
2022/01/17 03:49:45;;;;;;;23.77;12.83;;;;;;;-2.40;100.00;101148.69;5052000;28;20021;-74
2022/01/17 03:52:11;;;;;;;25.70;14.27;;;;;;;-2.57;100.00;101145.34;5051129;28;20032;-73
2022/01/17 03:54:36;;;;;;;21.33;13.20;;;;;;;-2.56;100.00;101154.72;5064428;28;20033;-74
2022/01/17 03:57:02;;;;;;;23.50;13.50;;;;;;;-2.53;100.00;101152.53;5071484;28;20028;-74
2022/01/17 03:59:28;;;;;;;24.57;12.83;;;;;;;-2.66;100.00;101139.38;5053496;28;20039;-75
2022/01/17 04:01:54;;;;;;;23.40;12.97;;;;;;;-2.67;100.00;101146.06;5071331;28;20028;-74
2022/01/17 04:04:20;;;;;;;23.27;12.97;;;;;;;-3.10;100.00;101089.56;5058594;28;20056;-74
2022/01/17 04:06:45;;;;;;;25.13;14.17;;;;;;;-3.01;100.00;101124.97;5051527;28;20506;-74
2022/01/17 04:09:12;;;;;;;22.63;13.17;;;;;;;-3.03;100.00;101144.13;5052362;28;20047;-74
2022/01/17 04:11:38;;;;;;;22.30;13.53;;;;;;;-3.36;100.00;101132.38;5052165;28;20064;-70
2022/01/17 04:14:05;;;;;;;25.13;14.40;;;;;;;-3.43;100.00;101152.66;5052253;28;20020;-71
2022/01/17 04:16:31;;;;;;;25.10;13.50;;;;;;;-3.67;100.00;101110.66;5052439;28;20403;-72
2022/01/17 04:18:57;;;;;;;25.93;14.33;;;;;;;-3.65;100.00;101135.31;5051878;28;20021;-72
2022/01/17 04:21:22;;;;;;;26.90;14.17;;;;;;;-3.51;100.00;101149.34;5049355;28;20039;-71
2022/01/17 04:23:48;;;;;;;29.30;16.37;;;;;;;-3.38;100.00;101136.34;5052014;28;20048;-71
2022/01/17 04:26:14;;;;;;;32.10;14.33;;;;;;;-3.23;100.00;101134.50;5061408;28;20052;-72
2022/01/17 04:28:40;;;;;;;22.00;13.70;;;;;;;-3.21;100.00;101115.38;5070614;28;20027;-73
2022/01/17 04:31:05;;;;;;;24.20;13.80;;;;;;;-3.06;100.00;101116.03;5053042;28;20482;-73
2022/01/17 04:33:31;;;;;;;22.80;13.60;;;;;;;-2.83;100.00;101127.56;5058573;28;20395;-72
2022/01/17 04:35:56;;;;;;;24.50;13.73;;;;;;;-2.79;100.00;101140.69;5051254;28;20043;-70
2022/01/17 04:38:22;;;;;;;20.40;12.97;;;;;;;-2.80;100.00;101141.41;5051537;28;20438;-71
2022/01/17 04:40:51;;;;;;;24.03;14.03;;;;;;;-2.91;100.00;101141.97;5051595;28;20033;-70
2022/01/17 04:43:21;;;;;;;26.13;13.57;;;;;;;-3.28;100.00;101101.25;5051709;28;20064;-71
2022/01/17 04:45:49;;;;;;;24.47;13.47;;;;;;;-3.55;100.00;101090.81;5051451;28;20071;-69
2022/01/17 04:48:14;;;;;;;22.57;12.80;;;;;;;-3.60;100.00;101101.34;5051181;28;20491;-72
2022/01/17 04:50:40;;;;;;;21.80;12.83;;;;;;;-3.16;100.00;101139.47;5034576;28;20055;-71
2022/01/17 04:53:07;;;;;;;22.27;13.20;;;;;;;-3.17;100.00;101129.22;5070418;28;20080;-75
2022/01/17 04:55:33;;;;;;;22.23;13.03;;;;;;;-3.13;100.00;101131.28;5064987;28;20074;-72
2022/01/17 04:57:59;;;;;;;21.70;12.67;;;;;;;-3.07;100.00;101118.41;5049462;28;20468;-71
2022/01/17 05:00:26;;;;;;;21.90;12.33;;;;;;;-3.10;100.00;101107.25;5051104;28;20021;-71
2022/01/17 05:02:52;;;;;;;20.30;11.90;;;;;;;-2.91;100.00;101131.84;5058056;28;20112;-71
2022/01/17 05:05:18;;;;;;;23.50;13.07;;;;;;;-3.25;100.00;101082.97;5057769;28;20215;-71
2022/01/17 05:07:44;;;;;;;48.17;23.33;;;;;;;-2.99;100.00;101135.22;5055907;28;20475;-75
2022/01/17 05:10:12;;;;;;;36.73;19.93;;;;;;;-3.41;100.00;101088.97;5057551;28;20028;-69
2022/01/17 05:12:38;;;;;;;25.57;14.67;;;;;;;-3.12;100.00;101139.03;5063279;28;20548;-73
2022/01/17 05:15:23;;;;;;;22.37;12.70;;;;;;;-3.34;100.00;101157.75;5063323;28;20111;-71
2022/01/17 05:20:41;;;;;;;23.87;14.57;;;;;;;-3.47;100.00;101153.97;4969570;28;20038;-71
2022/01/17 05:23:08;;;;;;;37.50;24.90;;;;;;;-3.50;100.00;101104.78;4985132;28;20042;-71
2022/01/17 05:25:34;;;;;;;45.57;30.67;;;;;;;-3.60;100.00;101091.25;4980543;28;20201;-72
2022/01/17 05:28:00;;;;;;;47.50;27.77;;;;;;;-3.28;100.00;101129.00;4981526;28;20046;-70
2022/01/17 05:30:25;;;;;;;62.60;34.93;;;;;;;-3.50;100.00;101064.41;4985745;28;20439;-70
2022/01/17 05:32:52;;;;;;;41.57;23.97;;;;;;;-3.18;100.00;101114.78;4987360;28;20508;-70
2022/01/17 05:35:18;;;;;;;33.87;18.67;;;;;;;-3.25;100.00;101105.69;4969147;28;20038;-71
2022/01/17 05:37:45;;;;;;;33.13;19.57;;;;;;;-3.26;100.00;101101.38;4975381;28;20046;-71
2022/01/17 05:40:13;;;;;;;35.90;18.60;;;;;;;-3.49;100.00;101091.44;4986115;28;20030;-70
2022/01/17 05:42:39;;;;;;;34.70;19.50;;;;;;;-3.31;100.00;101112.66;4988031;28;20046;-71
2022/01/17 05:45:07;;;;;;;39.60;23.77;;;;;;;-3.19;100.00;101118.97;4988816;28;20046;-71
2022/01/17 05:47:33;;;;;;;32.07;18.50;;;;;;;-3.28;100.00;101111.34;4988847;28;20023;-71
2022/01/17 05:50:01;;;;;;;36.37;17.43;;;;;;;-3.42;100.00;101094.75;4988491;28;20074;-71
2022/01/17 05:52:27;;;;;;;40.80;18.37;;;;;;;-3.59;100.00;101056.78;4988463;28;20044;-71
2022/01/17 05:54:52;;;;;;;29.53;16.70;;;;;;;-3.29;100.00;101096.91;4986534;28;20046;-72
2022/01/17 05:57:18;;;;;;;30.57;18.07;;;;;;;-3.21;100.00;101094.28;5016015;28;20045;-71
2022/01/17 05:59:44;;;;;;;32.33;17.73;;;;;;;-3.22;100.00;101092.50;5090425;28;20410;-72
2022/01/17 06:02:09;;;;;;;28.13;16.70;;;;;;;-3.14;100.00;101096.66;5088676;28;20028;-74
2022/01/17 06:04:36;;;;;;;26.03;15.80;;;;;;;-3.01;100.00;101094.66;5018305;28;20045;-71
2022/01/17 06:07:03;;;;;;;34.00;20.03;;;;;;;-2.96;100.00;101092.59;5056336;28;20032;-72
2022/01/17 06:09:28;;;;;;;32.10;18.33;;;;;;;-2.92;100.00;101089.63;5055852;28;20032;-75
2022/01/17 06:11:54;;;;;;;29.97;16.00;;;;;;;-2.85;100.00;101086.09;5037736;28;20045;-73
2022/01/17 06:14:20;;;;;;;25.37;15.43;;;;;;;-2.84;100.00;101091.31;5056460;28;20055;-73
2022/01/17 06:16:46;;;;;;;31.93;17.43;;;;;;;-3.20;100.00;101043.94;5056684;28;20083;-73
2022/01/17 06:19:13;;;;;;;27.00;14.63;;;;;;;-3.35;100.00;101043.28;5056992;28;20476;-74
2022/01/17 06:21:38;;;;;;;25.17;14.20;;;;;;;-3.23;100.00;101085.66;5057061;28;20111;-73
2022/01/17 06:24:06;;;;;;;27.43;15.13;;;;;;;-3.49;100.00;101097.41;5056773;28;20037;-73
2022/01/17 06:26:39;;;;;;;27.40;16.33;;;;;;;-3.65;100.00;101086.44;5056591;28;20025;-74
2022/01/17 06:29:06;;;;;;;28.00;15.50;;;;;;;-3.47;100.00;101106.00;5056798;28;20087;-73
2022/01/17 06:31:31;;;;;;;28.87;16.50;;;;;;;-3.60;100.00;101068.53;5056576;28;20068;-74
2022/01/17 06:33:57;;;;;;;31.03;17.37;;;;;;;-3.26;100.00;101106.44;5056893;28;20056;-73
2022/01/17 06:36:23;;;;;;;25.67;15.43;;;;;;;-3.30;100.00;101104.34;5056880;28;20060;-73
2022/01/17 06:38:49;;;;;;;25.40;14.77;;;;;;;-3.31;100.00;101095.84;5055726;28;20037;-73
2022/01/17 06:41:17;;;;;;;26.43;15.10;;;;;;;-3.27;100.00;101102.13;5056797;28;20024;-73
2022/01/17 06:43:43;;;;;;;31.67;17.03;;;;;;;-3.29;100.00;101099.44;5056685;28;20048;-74
2022/01/17 06:46:08;;;;;;;25.90;15.43;;;;;;;-3.73;100.00;100999.88;5056409;28;20418;-74
2022/01/17 06:48:34;;;;;;;30.00;18.20;;;;;;;-3.21;100.00;101077.50;5056414;28;20112;-74
2022/01/17 06:51:00;;;;;;;27.83;16.43;;;;;;;-3.16;100.00;101083.00;5072772;28;20024;-74
2022/01/17 06:53:27;;;;;;;28.27;16.53;;;;;;;-3.14;100.00;101090.00;5075980;28;20482;-74
2022/01/17 06:55:54;;;;;;;26.23;16.17;;;;;;;-3.09;100.00;101075.28;5043162;28;20076;-73
2022/01/17 06:58:19;;;;;;;33.23;17.23;;;;;;;-3.00;100.00;101080.41;5055752;28;20517;-74
2022/01/17 07:00:45;;;;;;;31.13;16.63;;;;;;;-3.04;100.00;101078.28;5056654;28;20024;-73
2022/01/17 07:03:11;;;;;;;28.20;14.70;;;;;;;-3.11;100.00;101082.72;5055532;28;20032;-72
2022/01/17 07:05:36;;;;;;;26.40;15.77;;;;;;;-3.01;100.00;101078.63;5055738;28;20045;-71
2022/01/17 07:08:02;;;;;;;29.20;16.50;;;;;;;-3.04;100.00;101032.81;5055732;28;20025;-72
2022/01/17 07:10:28;;;;;;;31.77;17.00;;;;;;;-2.70;100.00;101056.41;5066726;28;20029;-72
2022/01/17 07:12:55;;;;;;;30.13;16.93;;;;;;;-2.58;100.00;101041.56;5076589;28;20025;-73
2022/01/17 07:15:20;;;;;;;29.57;16.50;;;;;;;-2.69;100.00;100983.28;5075872;28;20067;-73
2022/01/17 07:17:47;;;;;;;31.27;16.77;;;;;;;-2.23;100.00;101032.38;5071923;28;20029;-72
2022/01/17 07:20:14;;;;;;;30.30;17.17;;;;;;;-2.45;100.00;100984.75;5073031;28;20475;-73
2022/01/17 07:22:40;;;;;;;31.20;18.23;;;;;;;-2.14;100.00;101034.91;5073821;28;20254;-73
2022/01/17 07:25:06;;;;;;;33.70;17.53;;;;;;;-2.02;100.00;101012.41;5072954;28;20029;-74
2022/01/17 07:27:31;;;;;;;30.90;17.03;;;;;;;-1.96;100.00;101010.47;5053578;28;20041;-73
2022/01/17 07:29:57;;;;;;;33.13;19.37;;;;;;;-1.79;100.00;101033.19;5053201;28;20037;-73
2022/01/17 07:32:23;;;;;;;42.90;24.13;;;;;;;-1.62;100.00;101031.38;5052635;28;20028;-73
2022/01/17 07:34:48;;;;;;;36.80;23.03;;;;;;;-1.65;100.00;101001.59;5063881;28;20037;-74
2022/01/17 07:37:14;;;;;;;36.77;22.60;;;;;;;-1.65;100.00;100967.81;5072428;28;20103;-74
2022/01/17 07:39:40;;;;;;;38.83;22.90;;;;;;;-1.28;100.00;101020.97;5072674;28;20067;-74
2022/01/17 07:42:06;;;;;;;38.97;23.40;;;;;;;-1.15;100.00;101009.63;5072778;28;20029;-73
2022/01/17 07:44:33;;;;;;;34.03;21.27;;;;;;;-1.28;100.00;100962.72;5083306;28;20028;-71
2022/01/17 07:47:01;;;;;;;38.10;23.67;;;;;;;-0.98;100.00;101001.00;5084124;28;20035;-74
2022/01/17 07:49:28;;;;;;;42.37;23.93;;;;;;;-0.80;100.00;100993.28;5094026;28;20482;-74
2022/01/17 07:52:03;;;;;;;36.50;22.53;;;;;;;-0.76;100.00;100992.84;5095686;28;20040;-73
2022/01/17 07:54:32;;;;;;;46.27;24.60;;;;;;;-0.63;100.00;100989.75;5092916;28;20066;-74
2022/01/17 07:56:59;;;;;;;39.20;24.60;;;;;;;-0.53;100.00;101005.03;5065935;28;20020;-73
2022/01/17 07:59:24;;;;;;;40.50;23.83;;;;;;;-0.60;100.00;100984.94;5051625;28;20068;-72
2022/01/17 08:01:53;;;;;;;45.83;26.47;;;;;;;-0.34;100.00;100994.91;5051635;28;20056;-72
2022/01/17 08:04:19;;;;;;;42.80;25.63;;;;;;;-0.21;100.00;101012.09;5067180;28;20067;-73
2022/01/17 08:06:46;;;;;;;39.20;25.80;;;;;;;-0.19;100.00;101032.53;5072531;28;20056;-73
2022/01/17 08:09:19;;;;;;;41.97;26.87;;;;;;;-0.07;100.00;101038.69;5068381;28;20029;-72
2022/01/17 08:11:44;;;;;;;41.63;25.17;;;;;;;0.01;100.00;101054.59;5051300;28;20064;-73
2022/01/17 08:14:10;;;;;;;41.83;24.13;;;;;;;0.06;100.00;101055.88;5051436;28;20037;-72
2022/01/17 08:16:35;;;;;;;41.23;24.57;;;;;;;0.07;100.00;101105.91;5051148;28;20465;-73
2022/01/17 08:19:01;;;;;;;40.90;24.93;;;;;;;0.05;100.00;101106.53;5051596;28;20029;-73
2022/01/17 08:21:26;;;;;;;43.57;25.47;;;;;;;0.19;100.00;101121.38;5050986;28;20116;-73
2022/01/17 08:23:55;;;;;;;43.17;24.80;;;;;;;0.10;100.00;101087.53;5051480;28;20025;-73
2022/01/17 08:26:21;;;;;;;41.13;25.17;;;;;;;0.40;100.00;101124.00;5051291;28;20029;-74
2022/01/17 08:28:47;;;;;;;43.43;26.43;;;;;;;0.43;100.00;101089.59;5053023;28;20082;-72
2022/01/17 08:31:13;;;;;;;41.30;24.50;;;;;;;0.58;100.00;101084.97;5054937;28;21128;-73
2022/01/17 08:33:38;;;;;;;41.10;24.40;;;;;;;0.41;100.00;101035.25;5051832;28;20035;-72
2022/01/17 08:36:07;;;;;;;37.77;23.40;;;;;;;0.70;100.00;101039.41;5056580;28;20029;-73
2022/01/17 08:38:33;;;;;;;37.93;21.70;;;;;;;0.74;100.00;101023.66;5055321;28;20550;-73
2022/01/17 08:40:59;;;;;;;38.63;23.90;;;;;;;0.91;100.00;101031.81;5050975;28;20052;-73
2022/01/17 08:43:25;;;;;;;37.67;22.17;;;;;;;1.00;100.00;100988.47;5050953;28;20075;-73
2022/01/17 08:45:51;;;;;;;41.50;24.00;;;;;;;1.09;100.00;101005.38;5050647;28;20029;-71
2022/01/17 08:48:17;;;;;;;40.50;23.87;;;;;;;1.29;99.67;101018.88;5063035;28;20482;-72
2022/01/17 08:50:43;;;;;;;45.10;24.47;;;;;;;1.40;99.07;100994.34;5071175;28;20069;-72
2022/01/17 08:53:13;;;;;;;39.83;24.37;;;;;;;1.51;97.10;100949.41;5071676;28;20032;-73
2022/01/17 08:55:39;;;;;;;37.97;23.08;;;;;;;1.60;98.33;100957.78;5070916;28;20043;-73
2022/01/17 08:58:06;;;;;;;36.27;22.07;;;;;;;1.70;97.66;100932.31;5071423;28;20405;-72
2022/01/17 09:00:31;;;;;;;36.07;22.37;;;;;;;1.82;96.21;100926.41;5071004;28;20107;-71
2022/01/17 09:02:58;;;;;;;35.20;21.03;;;;;;;1.77;97.59;100921.84;5068048;28;20103;-71
2022/01/17 09:05:24;;;;;;;37.97;22.70;;;;;;;2.00;96.75;100929.53;5051270;28;20076;-71
2022/01/17 09:07:49;;;;;;;38.23;23.03;;;;;;;2.02;94.86;100927.97;5051569;28;20158;-71
2022/01/17 09:10:16;;;;;;;39.90;24.10;;;;;;;2.01;94.57;100876.16;5050671;28;20483;-72
2022/01/17 09:12:41;;;;;;;36.00;22.17;;;;;;;2.18;94.04;100885.13;5050618;28;20049;-71
2022/01/17 09:15:07;;;;;;;35.43;21.87;;;;;;;2.26;93.59;100871.28;5050876;28;20029;-71
2022/01/17 09:17:33;;;;;;;38.87;21.77;;;;;;;2.39;93.69;100872.22;5051114;28;20079;-71
2022/01/17 09:19:58;;;;;;;34.03;21.73;;;;;;;2.37;92.77;100873.81;5051061;28;20509;-71
2022/01/17 09:22:24;;;;;;;35.78;23.15;;;;;;;2.45;92.91;100869.28;5051147;28;20025;-72
2022/01/17 09:24:51;;;;;;;36.97;21.95;;;;;;;2.61;91.34;100889.19;5050770;28;20040;-72
2022/01/17 09:27:18;;;;;;;35.00;20.90;;;;;;;2.69;90.20;100885.53;5050800;28;20498;-71
2022/01/17 09:29:43;;;;;;;33.15;19.90;;;;;;;2.77;89.52;100883.53;5051439;28;20029;-72
2022/01/17 09:32:09;;;;;;;31.83;18.73;;;;;;;2.80;88.44;100884.66;5052939;28;20024;-74
2022/01/17 09:34:36;;;;;;;30.37;18.77;;;;;;;2.73;88.58;100832.34;5056116;28;20048;-76
2022/01/17 09:37:02;;;;;;;26.13;15.82;;;;;;;2.99;89.54;100845.22;5054414;28;20497;-74
2022/01/17 09:39:27;;;;;;;22.73;13.98;;;;;;;3.10;89.16;100841.78;5069939;28;20033;-74
2022/01/17 09:41:53;;;;;;;29.83;17.77;;;;;;;3.09;88.30;100811.97;5004145;28;20050;-74
2022/01/17 09:44:18;;;;;;;29.42;16.83;;;;;;;3.27;88.76;100814.09;4987958;28;20052;-74
2022/01/17 09:46:47;;;;;;;27.90;18.23;;;;;;;3.51;89.65;100840.44;4988825;28;20489;-74
2022/01/17 09:54:21;;;;;;;22.08;13.30;;;;;;;4.04;77.96;100802.44;4988676;28;20038;-74
2022/01/17 09:56:50;;;;;;;21.88;12.48;;;;;;;4.25;72.75;100837.94;4988278;28;20032;-74
2022/01/17 09:59:16;;;;;;;18.38;11.13;;;;;;;4.37;72.23;100835.31;4988733;28;20125;-73
2022/01/17 10:01:42;;;;;;;18.42;11.80;;;;;;;4.11;70.62;100772.22;5005418;28;20092;-73
2022/01/17 10:04:09;;;;;;;17.50;11.73;;;;;;;4.60;70.76;100838.53;5008294;28;20038;-73
2022/01/17 10:06:35;;;;;;;19.17;10.68;;;;;;;4.25;69.00;100797.03;5008265;28;20052;-73
2022/01/17 10:09:21;;;;;;;15.35;9.48;;;;;;;3.75;69.35;100745.94;5008209;28;20042;-73
2022/01/17 10:12:05;;;;;;;23.90;13.77;;;;;;;4.72;68.68;100835.91;5007854;28;20042;-73
2022/01/17 10:14:37;;;;;;;19.48;11.98;;;;;;;4.73;68.40;100807.88;5008372;28;20512;-73
2022/01/17 10:17:05;;;;;;;17.45;10.63;;;;;;;4.89;68.11;100831.91;5008123;28;20044;-72
2022/01/17 10:19:30;;;;;;;18.60;9.75;;;;;;;4.64;67.56;100792.81;5043436;28;20059;-72
2022/01/17 10:21:58;;;;;;;18.40;11.52;;;;;;;4.64;68.96;100800.47;5069917;28;20441;-72
2022/01/17 10:24:41;;;;;;;19.45;10.98;;;;;;;4.63;68.56;100775.69;5069924;28;20610;-73
2022/01/17 10:27:42;;;;;;;20.67;11.98;;;;;;;4.57;69.69;100798.28;5070432;28;20024;-73
2022/01/17 10:30:40;;;;;;;25.20;13.55;;;;;;;4.76;70.78;100785.06;5069600;28;20047;-73
2022/01/17 10:35:52;;;;;;;22.35;13.88;;;;;;;4.81;71.24;100781.13;5069972;28;20086;-72
2022/01/17 10:38:24;;;;;;;22.52;13.70;;;;;;;4.71;71.57;100765.97;5069818;28;20025;-73
2022/01/17 10:40:53;;;;;;;27.08;14.63;;;;;;;4.86;72.08;100753.28;5034302;28;20032;-73
2022/01/17 10:43:28;;;;;;;23.08;13.65;;;;;;;4.65;73.25;100743.44;5069896;28;20029;-73
2022/01/17 10:45:56;;;;;;;18.17;9.55;;;;;;;4.54;72.84;100755.50;5051977;28;20455;-73
2022/01/17 10:48:46;;;;;;;23.33;14.35;;;;;;;4.94;72.65;100744.41;5069801;28;20071;-73
2022/01/17 10:51:14;;;;;;;21.48;14.23;;;;;;;4.89;73.20;100721.91;5052445;28;20115;-73
2022/01/17 10:53:40;;;;;;;26.30;13.27;;;;;;;4.89;72.81;100730.44;5073511;28;20025;-73
2022/01/17 10:56:10;;;;;;;20.60;12.02;;;;;;;4.97;72.90;100736.97;5072163;28;20025;-73
2022/01/17 10:58:38;;;;;;;25.92;15.52;;;;;;;5.01;73.56;100727.81;5073631;28;20025;-73
2022/01/17 11:01:16;;;;;;;23.70;14.07;;;;;;;4.92;73.76;100694.84;5073812;28;20036;-73
2022/01/17 11:03:44;;;;;;;23.67;14.23;;;;;;;5.28;74.27;100708.19;5072281;28;20045;-73
2022/01/17 11:06:15;;;;;;;17.02;10.75;;;;;;;5.37;73.37;100717.19;5090398;28;20056;-71
2022/01/17 11:08:41;;;;;;;24.83;14.57;;;;;;;5.22;73.21;100665.94;5093754;28;20044;-73
2022/01/17 11:11:09;;;;;;;19.25;12.73;;;;;;;5.57;72.42;100693.72;5093662;28;20028;-73
2022/01/17 11:13:42;;;;;;;19.25;12.40;;;;;;;5.62;72.76;100689.75;5093655;28;20409;-72
2022/01/17 11:16:11;;;;;;;20.60;13.15;;;;;;;5.37;73.58;100637.84;5093393;28;20074;-73
2022/01/17 11:18:37;;;;;;;20.80;12.52;;;;;;;5.53;73.74;100648.19;5083170;28;20101;-73
2022/01/17 11:21:10;;;;;;;22.15;12.88;;;;;;;5.50;73.90;100637.78;5072656;28;20497;-73
2022/01/17 11:23:38;;;;;;;22.85;13.85;;;;;;;5.57;73.96;100621.09;5080344;28;20502;-71
2022/01/17 11:26:05;;;;;;;23.98;12.88;;;;;;;5.81;74.20;100658.41;5092432;28;20032;-72
2022/01/17 11:28:33;;;;;;;26.42;14.10;;;;;;;5.99;74.19;100665.44;5093247;28;20020;-73
2022/01/17 11:31:05;;;;;;;19.92;10.15;;;;;;;5.93;73.67;100665.06;5092919;28;20505;-74
2022/01/17 11:33:30;;;;;;;18.83;8.95;;;;;;;6.01;74.40;100669.00;5093317;28;20054;-73